sensor_id;sensor_type;location;lat;lon;timestamp;temperature;humidity
10802;DHT22;5453;50.852;7.102;2023-03-30T00:02:07;13.70;99.90
10802;DHT22;5453;50.852;7.102;2023-03-30T00:04:41;13.70;99.90
10802;DHT22;5453;50.852;7.102;2023-03-30T00:07:13;13.70;99.90
10802;DHT22;5453;50.852;7.102;2023-03-30T00:09:46;13.80;99.90
10802;DHT22;5453;50.852;7.102;2023-03-30T00:12:18;13.70;99.90
10802;DHT22;5453;50.852;7.102;2023-03-30T00:14:50;13.80;99.90
10802;DHT22;5453;50.852;7.102;2023-03-30T00:17:24;13.80;99.90
10802;DHT22;5453;50.852;7.102;2023-03-30T00:19:58;13.70;99.90
10802;DHT22;5453;50.852;7.102;2023-03-30T00:22:35;13.80;99.90
10802;DHT22;5453;50.852;7.102;2023-03-30T00:25:10;13.80;99.90
10802;DHT22;5453;50.852;7.102;2023-03-30T00:27:44;13.80;99.90
10802;DHT22;5453;50.852;7.102;2023-03-30T00:30:17;13.80;99.90
10802;DHT22;5453;50.852;7.102;2023-03-30T00:32:50;13.80;99.90
10802;DHT22;5453;50.852;7.102;2023-03-30T00:35:24;13.80;99.90
10802;DHT22;5453;50.852;7.102;2023-03-30T00:38:00;13.70;99.90
10802;DHT22;5453;50.852;7.102;2023-03-30T00:40:33;13.80;99.90
10802;DHT22;5453;50.852;7.102;2023-03-30T00:43:10;13.70;99.90
10802;DHT22;5453;50.852;7.102;2023-03-30T00:45:42;13.80;99.90
10802;DHT22;5453;50.852;7.102;2023-03-30T00:48:17;13.80;99.90
10802;DHT22;5453;50.852;7.102;2023-03-30T00:50:53;13.80;99.90
10802;DHT22;5453;50.852;7.102;2023-03-30T00:53:30;13.90;99.90
10802;DHT22;5453;50.852;7.102;2023-03-30T00:56:07;13.90;99.90
10802;DHT22;5453;50.852;7.102;2023-03-30T00:58:41;13.90;99.90
10802;DHT22;5453;50.852;7.102;2023-03-30T01:01:15;13.90;99.90
10802;DHT22;5453;50.852;7.102;2023-03-30T01:03:57;14.00;99.90
10802;DHT22;5453;50.852;7.102;2023-03-30T01:06:33;14.00;99.90
10802;DHT22;5453;50.852;7.102;2023-03-30T01:09:10;14.00;99.90
10802;DHT22;5453;50.852;7.102;2023-03-30T01:11:43;14.00;99.90
10802;DHT22;5453;50.852;7.102;2023-03-30T01:14:17;14.00;99.90
10802;DHT22;5453;50.852;7.102;2023-03-30T01:16:55;14.10;99.90
10802;DHT22;5453;50.852;7.102;2023-03-30T01:19:51;14.10;99.90
10802;DHT22;5453;50.852;7.102;2023-03-30T01:23:04;14.10;99.90
10802;DHT22;5453;50.852;7.102;2023-03-30T01:26:23;14.10;99.90
10802;DHT22;5453;50.852;7.102;2023-03-30T01:29:13;14.10;99.90
10802;DHT22;5453;50.852;7.102;2023-03-30T01:35:18;14.10;99.90
10802;DHT22;5453;50.852;7.102;2023-03-30T01:41:19;14.10;99.90
10802;DHT22;5453;50.852;7.102;2023-03-30T01:44:00;14.20;99.90
10802;DHT22;5453;50.852;7.102;2023-03-30T01:46:39;14.20;99.90
10802;DHT22;5453;50.852;7.102;2023-03-30T01:49:21;14.20;99.90
10802;DHT22;5453;50.852;7.102;2023-03-30T01:52:02;14.30;99.90
10802;DHT22;5453;50.852;7.102;2023-03-30T01:54:40;14.30;99.90
10802;DHT22;5453;50.852;7.102;2023-03-30T01:57:18;14.30;99.90
10802;DHT22;5453;50.852;7.102;2023-03-30T01:59:56;14.30;99.90
10802;DHT22;5453;50.852;7.102;2023-03-30T02:02:46;14.30;99.90
10802;DHT22;5453;50.852;7.102;2023-03-30T02:05:21;14.30;99.90
10802;DHT22;5453;50.852;7.102;2023-03-30T02:07:56;14.30;99.90
10802;DHT22;5453;50.852;7.102;2023-03-30T02:10:33;14.40;99.90
10802;DHT22;5453;50.852;7.102;2023-03-30T02:13:07;14.40;99.90
10802;DHT22;5453;50.852;7.102;2023-03-30T02:15:42;14.40;99.90
10802;DHT22;5453;50.852;7.102;2023-03-30T02:18:24;14.40;99.90
10802;DHT22;5453;50.852;7.102;2023-03-30T02:20:56;14.40;99.90
10802;DHT22;5453;50.852;7.102;2023-03-30T02:23:33;14.50;99.90
10802;DHT22;5453;50.852;7.102;2023-03-30T02:26:06;14.50;99.90
10802;DHT22;5453;50.852;7.102;2023-03-30T02:28:40;14.60;99.90
10802;DHT22;5453;50.852;7.102;2023-03-30T02:31:13;14.70;99.90
10802;DHT22;5453;50.852;7.102;2023-03-30T02:34:00;14.70;99.90
10802;DHT22;5453;50.852;7.102;2023-03-30T02:37:11;14.80;99.90
10802;DHT22;5453;50.852;7.102;2023-03-30T02:40:00;14.80;99.90
10802;DHT22;5453;50.852;7.102;2023-03-30T02:42:57;14.90;99.90
10802;DHT22;5453;50.852;7.102;2023-03-30T02:45:44;14.90;99.90
10802;DHT22;5453;50.852;7.102;2023-03-30T02:48:32;14.90;99.90
10802;DHT22;5453;50.852;7.102;2023-03-30T02:51:23;14.90;99.90
10802;DHT22;5453;50.852;7.102;2023-03-30T02:54:34;14.90;99.90
10802;DHT22;5453;50.852;7.102;2023-03-30T02:57:43;14.90;99.90
10802;DHT22;5453;50.852;7.102;2023-03-30T03:00:50;14.90;99.90
10802;DHT22;5453;50.852;7.102;2023-03-30T03:03:33;14.90;99.90
10802;DHT22;5453;50.852;7.102;2023-03-30T03:06:09;14.90;99.90
10802;DHT22;5453;50.852;7.102;2023-03-30T03:08:49;14.90;99.90
10802;DHT22;5453;50.852;7.102;2023-03-30T03:11:31;14.80;99.90
10802;DHT22;5453;50.852;7.102;2023-03-30T03:14:04;14.90;99.90
10802;DHT22;5453;50.852;7.102;2023-03-30T03:16:39;14.90;99.90
10802;DHT22;5453;50.852;7.102;2023-03-30T03:19:18;14.90;99.90
10802;DHT22;5453;50.852;7.102;2023-03-30T03:21:53;14.90;99.90
10802;DHT22;5453;50.852;7.102;2023-03-30T03:24:25;14.90;99.90
10802;DHT22;5453;50.852;7.102;2023-03-30T03:27:15;14.90;99.90
10802;DHT22;5453;50.852;7.102;2023-03-30T03:30:14;14.90;99.90
10802;DHT22;5453;50.852;7.102;2023-03-30T03:32:54;14.90;99.90
10802;DHT22;5453;50.852;7.102;2023-03-30T03:35:28;14.90;99.90
10802;DHT22;5453;50.852;7.102;2023-03-30T03:38:03;14.90;99.90
10802;DHT22;5453;50.852;7.102;2023-03-30T03:40:36;14.90;99.90
10802;DHT22;5453;50.852;7.102;2023-03-30T03:43:08;14.90;99.90
10802;DHT22;5453;50.852;7.102;2023-03-30T03:45:40;14.80;99.90
10802;DHT22;5453;50.852;7.102;2023-03-30T03:48:15;14.80;99.90
10802;DHT22;5453;50.852;7.102;2023-03-30T03:50:54;14.80;99.90
10802;DHT22;5453;50.852;7.102;2023-03-30T03:53:29;14.80;99.90
10802;DHT22;5453;50.852;7.102;2023-03-30T03:56:05;14.80;99.90
10802;DHT22;5453;50.852;7.102;2023-03-30T04:01:20;14.80;99.90
10802;DHT22;5453;50.852;7.102;2023-03-30T04:03:53;14.70;99.90
10802;DHT22;5453;50.852;7.102;2023-03-30T04:06:26;14.70;99.90
10802;DHT22;5453;50.852;7.102;2023-03-30T04:08:58;14.70;99.90
10802;DHT22;5453;50.852;7.102;2023-03-30T04:12:00;14.70;99.90
10802;DHT22;5453;50.852;7.102;2023-03-30T04:14:42;14.60;99.90
10802;DHT22;5453;50.852;7.102;2023-03-30T04:17:38;14.60;99.90
10802;DHT22;5453;50.852;7.102;2023-03-30T04:20:50;14.60;99.90
10802;DHT22;5453;50.852;7.102;2023-03-30T04:23:38;14.60;99.90
10802;DHT22;5453;50.852;7.102;2023-03-30T04:26:47;14.60;99.90
10802;DHT22;5453;50.852;7.102;2023-03-30T04:29:37;14.60;99.90
10802;DHT22;5453;50.852;7.102;2023-03-30T04:32:28;14.60;99.90
10802;DHT22;5453;50.852;7.102;2023-03-30T04:35:31;14.60;99.90
10802;DHT22;5453;50.852;7.102;2023-03-30T04:38:28;14.50;99.90
10802;DHT22;5453;50.852;7.102;2023-03-30T04:41:28;14.50;99.90
10802;DHT22;5453;50.852;7.102;2023-03-30T04:44:20;14.50;99.90
10802;DHT22;5453;50.852;7.102;2023-03-30T04:47:07;14.50;99.90
10802;DHT22;5453;50.852;7.102;2023-03-30T04:50:14;14.50;99.90
10802;DHT22;5453;50.852;7.102;2023-03-30T04:53:05;14.50;99.90
10802;DHT22;5453;50.852;7.102;2023-03-30T04:56:05;14.50;99.90
10802;DHT22;5453;50.852;7.102;2023-03-30T04:58:58;14.50;99.90
10802;DHT22;5453;50.852;7.102;2023-03-30T05:01:30;14.50;99.90
10802;DHT22;5453;50.852;7.102;2023-03-30T05:04:27;14.50;99.90
10802;DHT22;5453;50.852;7.102;2023-03-30T05:07:34;14.50;99.90
10802;DHT22;5453;50.852;7.102;2023-03-30T05:10:35;14.50;99.90
10802;DHT22;5453;50.852;7.102;2023-03-30T05:13:29;14.50;99.90
10802;DHT22;5453;50.852;7.102;2023-03-30T05:16:34;14.50;99.90
10802;DHT22;5453;50.852;7.102;2023-03-30T05:19:17;14.50;99.90
10802;DHT22;5453;50.852;7.102;2023-03-30T05:22:08;14.50;99.90
10802;DHT22;5453;50.852;7.102;2023-03-30T05:24:41;14.50;99.90
10802;DHT22;5453;50.852;7.102;2023-03-30T05:27:22;14.50;99.90
10802;DHT22;5453;50.852;7.102;2023-03-30T05:30:09;14.50;99.90
10802;DHT22;5453;50.852;7.102;2023-03-30T05:33:05;14.50;99.90
10802;DHT22;5453;50.852;7.102;2023-03-30T05:35:57;14.40;99.90
10802;DHT22;5453;50.852;7.102;2023-03-30T05:39:05;14.40;99.90
10802;DHT22;5453;50.852;7.102;2023-03-30T05:41:53;14.50;99.90
10802;DHT22;5453;50.852;7.102;2023-03-30T05:44:41;14.40;99.90
10802;DHT22;5453;50.852;7.102;2023-03-30T05:47:33;14.40;99.90
10802;DHT22;5453;50.852;7.102;2023-03-30T05:50:07;14.40;99.90
10802;DHT22;5453;50.852;7.102;2023-03-30T05:52:52;14.40;99.90
10802;DHT22;5453;50.852;7.102;2023-03-30T05:55:45;14.40;99.90
10802;DHT22;5453;50.852;7.102;2023-03-30T05:58:19;14.40;99.90
10802;DHT22;5453;50.852;7.102;2023-03-30T06:01:16;14.40;99.90
10802;DHT22;5453;50.852;7.102;2023-03-30T06:03:53;14.40;99.90
10802;DHT22;5453;50.852;7.102;2023-03-30T06:06:26;14.50;99.90
10802;DHT22;5453;50.852;7.102;2023-03-30T06:08:58;14.50;99.90
10802;DHT22;5453;50.852;7.102;2023-03-30T06:11:32;14.50;99.90
10802;DHT22;5453;50.852;7.102;2023-03-30T06:14:12;14.40;99.90
10802;DHT22;5453;50.852;7.102;2023-03-30T06:16:49;14.50;99.90
10802;DHT22;5453;50.852;7.102;2023-03-30T06:19:23;14.50;99.90
10802;DHT22;5453;50.852;7.102;2023-03-30T06:21:56;14.50;99.90
10802;DHT22;5453;50.852;7.102;2023-03-30T06:24:51;14.50;99.90
10802;DHT22;5453;50.852;7.102;2023-03-30T06:27:24;14.50;99.90
10802;DHT22;5453;50.852;7.102;2023-03-30T06:29:57;14.50;99.90
10802;DHT22;5453;50.852;7.102;2023-03-30T06:32:29;14.50;99.90
10802;DHT22;5453;50.852;7.102;2023-03-30T06:35:05;14.50;99.90
10802;DHT22;5453;50.852;7.102;2023-03-30T06:37:38;14.50;99.90
10802;DHT22;5453;50.852;7.102;2023-03-30T06:40:11;14.50;99.90
10802;DHT22;5453;50.852;7.102;2023-03-30T06:42:45;14.50;99.90
10802;DHT22;5453;50.852;7.102;2023-03-30T06:45:32;14.50;99.90
10802;DHT22;5453;50.852;7.102;2023-03-30T06:48:05;14.50;99.90
10802;DHT22;5453;50.852;7.102;2023-03-30T06:50:44;14.50;99.90
10802;DHT22;5453;50.852;7.102;2023-03-30T06:53:22;14.50;99.90
10802;DHT22;5453;50.852;7.102;2023-03-30T06:55:57;14.50;99.90
10802;DHT22;5453;50.852;7.102;2023-03-30T06:58:31;14.60;99.90
10802;DHT22;5453;50.852;7.102;2023-03-30T07:01:10;14.60;99.90
10802;DHT22;5453;50.852;7.102;2023-03-30T07:04:03;14.60;99.90
10802;DHT22;5453;50.852;7.102;2023-03-30T07:06:56;14.70;99.90
10802;DHT22;5453;50.852;7.102;2023-03-30T07:09:29;14.80;99.90
10802;DHT22;5453;50.852;7.102;2023-03-30T07:12:01;14.80;99.90
10802;DHT22;5453;50.852;7.102;2023-03-30T07:14:33;14.80;99.90
10802;DHT22;5453;50.852;7.102;2023-03-30T07:17:06;14.80;99.90
10802;DHT22;5453;50.852;7.102;2023-03-30T07:19:38;14.80;99.90
10802;DHT22;5453;50.852;7.102;2023-03-30T07:22:12;14.80;99.90
10802;DHT22;5453;50.852;7.102;2023-03-30T07:24:44;14.80;99.90
10802;DHT22;5453;50.852;7.102;2023-03-30T07:27:16;14.80;99.90
10802;DHT22;5453;50.852;7.102;2023-03-30T07:29:49;14.80;99.90
10802;DHT22;5453;50.852;7.102;2023-03-30T07:32:22;14.90;99.90
10802;DHT22;5453;50.852;7.102;2023-03-30T07:34:54;14.90;99.90
10802;DHT22;5453;50.852;7.102;2023-03-30T07:37:30;15.10;99.90
10802;DHT22;5453;50.852;7.102;2023-03-30T07:40:03;15.30;99.90
10802;DHT22;5453;50.852;7.102;2023-03-30T07:42:37;15.50;99.90
10802;DHT22;5453;50.852;7.102;2023-03-30T07:45:10;15.80;99.90
10802;DHT22;5453;50.852;7.102;2023-03-30T07:47:43;15.90;99.90
10802;DHT22;5453;50.852;7.102;2023-03-30T07:50:15;16.00;99.90
10802;DHT22;5453;50.852;7.102;2023-03-30T07:52:51;16.00;99.90
10802;DHT22;5453;50.852;7.102;2023-03-30T07:55:23;16.00;99.90
10802;DHT22;5453;50.852;7.102;2023-03-30T07:58:04;15.90;99.90
10802;DHT22;5453;50.852;7.102;2023-03-30T08:00:37;15.90;99.90
10802;DHT22;5453;50.852;7.102;2023-03-30T08:03:36;15.80;99.90
10802;DHT22;5453;50.852;7.102;2023-03-30T08:06:10;15.80;99.90
10802;DHT22;5453;50.852;7.102;2023-03-30T08:08:45;15.80;99.90
10802;DHT22;5453;50.852;7.102;2023-03-30T08:11:17;15.90;99.90
10802;DHT22;5453;50.852;7.102;2023-03-30T08:13:50;15.90;99.90
10802;DHT22;5453;50.852;7.102;2023-03-30T08:16:22;16.10;99.90
10802;DHT22;5453;50.852;7.102;2023-03-30T08:18:54;16.30;99.90
10802;DHT22;5453;50.852;7.102;2023-03-30T08:21:26;16.30;99.90
10802;DHT22;5453;50.852;7.102;2023-03-30T08:24:00;16.30;99.90
10802;DHT22;5453;50.852;7.102;2023-03-30T08:26:32;16.30;99.90
10802;DHT22;5453;50.852;7.102;2023-03-30T08:29:05;16.30;99.90
10802;DHT22;5453;50.852;7.102;2023-03-30T08:31:37;16.30;99.90
10802;DHT22;5453;50.852;7.102;2023-03-30T08:34:10;16.30;99.90
10802;DHT22;5453;50.852;7.102;2023-03-30T08:36:42;16.30;99.90
10802;DHT22;5453;50.852;7.102;2023-03-30T08:39:15;16.20;99.90
10802;DHT22;5453;50.852;7.102;2023-03-30T08:41:57;16.10;99.90
10802;DHT22;5453;50.852;7.102;2023-03-30T08:44:35;16.00;99.90
10802;DHT22;5453;50.852;7.102;2023-03-30T08:47:12;15.90;99.90
10802;DHT22;5453;50.852;7.102;2023-03-30T08:49:54;15.80;99.90
10802;DHT22;5453;50.852;7.102;2023-03-30T08:52:29;15.80;99.90
10802;DHT22;5453;50.852;7.102;2023-03-30T08:55:04;15.80;99.90
10802;DHT22;5453;50.852;7.102;2023-03-30T08:57:44;15.80;99.90
10802;DHT22;5453;50.852;7.102;2023-03-30T09:00:25;15.80;99.90
10802;DHT22;5453;50.852;7.102;2023-03-30T09:03:10;15.80;99.90
10802;DHT22;5453;50.852;7.102;2023-03-30T09:05:51;15.80;99.90
10802;DHT22;5453;50.852;7.102;2023-03-30T09:08:27;15.90;99.90
10802;DHT22;5453;50.852;7.102;2023-03-30T09:11:05;16.10;99.90
10802;DHT22;5453;50.852;7.102;2023-03-30T09:13:42;16.30;99.90
10802;DHT22;5453;50.852;7.102;2023-03-30T09:16:19;16.40;99.90
10802;DHT22;5453;50.852;7.102;2023-03-30T09:18:56;16.50;99.90
10802;DHT22;5453;50.852;7.102;2023-03-30T09:21:30;16.50;99.90
10802;DHT22;5453;50.852;7.102;2023-03-30T09:24:11;16.50;99.90
10802;DHT22;5453;50.852;7.102;2023-03-30T09:26:49;16.40;99.90
10802;DHT22;5453;50.852;7.102;2023-03-30T09:29:26;16.40;99.90
10802;DHT22;5453;50.852;7.102;2023-03-30T09:32:02;16.30;99.90
10802;DHT22;5453;50.852;7.102;2023-03-30T09:34:40;16.30;99.90
10802;DHT22;5453;50.852;7.102;2023-03-30T09:37:17;16.30;99.90
10802;DHT22;5453;50.852;7.102;2023-03-30T09:39:51;16.20;99.90
10802;DHT22;5453;50.852;7.102;2023-03-30T09:42:31;16.20;99.60
10802;DHT22;5453;50.852;7.102;2023-03-30T09:45:12;16.20;99.10
10802;DHT22;5453;50.852;7.102;2023-03-30T09:47:45;16.30;98.80
10802;DHT22;5453;50.852;7.102;2023-03-30T09:50:20;16.30;98.50
10802;DHT22;5453;50.852;7.102;2023-03-30T09:52:55;16.30;98.80
10802;DHT22;5453;50.852;7.102;2023-03-30T09:55:31;16.30;99.10
10802;DHT22;5453;50.852;7.102;2023-03-30T09:58:15;16.20;99.90
10802;DHT22;5453;50.852;7.102;2023-03-30T10:01:00;15.40;99.90
10802;DHT22;5453;50.852;7.102;2023-03-30T10:03:35;14.40;99.90
10802;DHT22;5453;50.852;7.102;2023-03-30T10:06:10;13.70;99.90
10802;DHT22;5453;50.852;7.102;2023-03-30T10:08:51;13.30;99.90
10802;DHT22;5453;50.852;7.102;2023-03-30T10:11:31;12.90;99.90
10802;DHT22;5453;50.852;7.102;2023-03-30T10:14:39;12.60;99.90
10802;DHT22;5453;50.852;7.102;2023-03-30T10:17:18;12.40;99.90
10802;DHT22;5453;50.852;7.102;2023-03-30T10:19:52;12.20;99.90
10802;DHT22;5453;50.852;7.102;2023-03-30T10:22:32;12.10;99.90
10802;DHT22;5453;50.852;7.102;2023-03-30T10:25:12;12.10;99.90
10802;DHT22;5453;50.852;7.102;2023-03-30T10:27:53;12.10;99.90
10802;DHT22;5453;50.852;7.102;2023-03-30T10:30:28;12.30;99.90
10802;DHT22;5453;50.852;7.102;2023-03-30T10:33:02;12.40;99.90
10802;DHT22;5453;50.852;7.102;2023-03-30T10:35:36;12.50;99.90
10802;DHT22;5453;50.852;7.102;2023-03-30T10:38:11;12.50;99.90
10802;DHT22;5453;50.852;7.102;2023-03-30T10:40:44;12.60;99.90
10802;DHT22;5453;50.852;7.102;2023-03-30T10:43:27;12.70;99.90
10802;DHT22;5453;50.852;7.102;2023-03-30T10:46:09;12.80;99.90
10802;DHT22;5453;50.852;7.102;2023-03-30T10:49:04;12.90;99.90
10802;DHT22;5453;50.852;7.102;2023-03-30T10:51:51;13.20;99.90
10802;DHT22;5453;50.852;7.102;2023-03-30T10:54:34;13.50;99.90
10802;DHT22;5453;50.852;7.102;2023-03-30T10:57:15;13.70;99.90
10802;DHT22;5453;50.852;7.102;2023-03-30T11:00:01;14.10;99.90
10802;DHT22;5453;50.852;7.102;2023-03-30T11:02:58;14.50;99.90
10802;DHT22;5453;50.852;7.102;2023-03-30T11:05:37;14.90;99.90
10802;DHT22;5453;50.852;7.102;2023-03-30T11:08:12;15.20;99.90
10802;DHT22;5453;50.852;7.102;2023-03-30T11:10:51;15.50;99.90
10802;DHT22;5453;50.852;7.102;2023-03-30T11:13:28;15.70;99.90
10802;DHT22;5453;50.852;7.102;2023-03-30T11:16:05;15.70;99.90
10802;DHT22;5453;50.852;7.102;2023-03-30T11:18:50;15.70;99.90
10802;DHT22;5453;50.852;7.102;2023-03-30T11:21:32;15.60;99.90
10802;DHT22;5453;50.852;7.102;2023-03-30T11:24:13;15.70;99.90
10802;DHT22;5453;50.852;7.102;2023-03-30T11:26:52;15.80;99.90
10802;DHT22;5453;50.852;7.102;2023-03-30T11:29:33;15.80;99.90
10802;DHT22;5453;50.852;7.102;2023-03-30T11:32:19;15.80;99.90
10802;DHT22;5453;50.852;7.102;2023-03-30T11:35:13;15.80;99.90
10802;DHT22;5453;50.852;7.102;2023-03-30T11:37:51;15.70;99.90
10802;DHT22;5453;50.852;7.102;2023-03-30T11:40:39;15.60;99.90
10802;DHT22;5453;50.852;7.102;2023-03-30T11:43:15;15.40;99.90
10802;DHT22;5453;50.852;7.102;2023-03-30T11:45:57;15.30;99.90
10802;DHT22;5453;50.852;7.102;2023-03-30T11:48:44;15.20;99.90
10802;DHT22;5453;50.852;7.102;2023-03-30T11:51:55;15.10;99.90
10802;DHT22;5453;50.852;7.102;2023-03-30T11:55:04;15.10;99.90
10802;DHT22;5453;50.852;7.102;2023-03-30T11:58:04;15.20;99.90
10802;DHT22;5453;50.852;7.102;2023-03-30T12:00:47;15.50;99.90
10802;DHT22;5453;50.852;7.102;2023-03-30T12:03:34;15.70;99.90
10802;DHT22;5453;50.852;7.102;2023-03-30T12:06:20;15.90;99.90
10802;DHT22;5453;50.852;7.102;2023-03-30T12:09:21;16.20;99.90
10802;DHT22;5453;50.852;7.102;2023-03-30T12:12:02;16.40;99.90
10802;DHT22;5453;50.852;7.102;2023-03-30T12:14:52;16.60;99.90
10802;DHT22;5453;50.852;7.102;2023-03-30T12:17:39;16.80;99.90
10802;DHT22;5453;50.852;7.102;2023-03-30T12:20:32;17.00;99.90
10802;DHT22;5453;50.852;7.102;2023-03-30T12:23:21;17.10;99.90
10802;DHT22;5453;50.852;7.102;2023-03-30T12:26:19;17.10;99.40
10802;DHT22;5453;50.852;7.102;2023-03-30T12:28:57;17.00;99.80
10802;DHT22;5453;50.852;7.102;2023-03-30T12:31:51;17.00;99.90
10802;DHT22;5453;50.852;7.102;2023-03-30T12:34:36;16.90;99.90
10802;DHT22;5453;50.852;7.102;2023-03-30T12:37:18;16.90;99.90
10802;DHT22;5453;50.852;7.102;2023-03-30T12:39:54;16.90;99.90
10802;DHT22;5453;50.852;7.102;2023-03-30T12:42:31;16.80;99.90
10802;DHT22;5453;50.852;7.102;2023-03-30T12:45:28;16.70;99.90
10802;DHT22;5453;50.852;7.102;2023-03-30T12:48:25;16.70;99.90
10802;DHT22;5453;50.852;7.102;2023-03-30T12:54:32;16.80;99.90
10802;DHT22;5453;50.852;7.102;2023-03-30T12:57:20;17.00;99.90
10802;DHT22;5453;50.852;7.102;2023-03-30T13:00:26;17.30;99.90
10802;DHT22;5453;50.852;7.102;2023-03-30T13:03:22;17.60;99.60
10802;DHT22;5453;50.852;7.102;2023-03-30T13:05:59;17.80;98.60
10802;DHT22;5453;50.852;7.102;2023-03-30T13:08:35;17.90;98.00
10802;DHT22;5453;50.852;7.102;2023-03-30T13:11:14;18.10;97.50
10802;DHT22;5453;50.852;7.102;2023-03-30T13:13:54;18.30;96.90
10802;DHT22;5453;50.852;7.102;2023-03-30T13:17:16;18.40;95.90
10802;DHT22;5453;50.852;7.102;2023-03-30T13:20:12;18.40;95.80
10802;DHT22;5453;50.852;7.102;2023-03-30T13:23:16;18.10;94.90
10802;DHT22;5453;50.852;7.102;2023-03-30T13:26:04;17.80;94.50
10802;DHT22;5453;50.852;7.102;2023-03-30T13:28:53;17.40;94.50
10802;DHT22;5453;50.852;7.102;2023-03-30T13:31:42;17.20;95.10
10802;DHT22;5453;50.852;7.102;2023-03-30T13:34:41;16.80;97.30
10802;DHT22;5453;50.852;7.102;2023-03-30T13:37:53;16.10;99.90
10802;DHT22;5453;50.852;7.102;2023-03-30T13:40:40;15.30;99.90
10802;DHT22;5453;50.852;7.102;2023-03-30T13:43:23;14.80;99.90
10802;DHT22;5453;50.852;7.102;2023-03-30T13:46:08;14.50;99.90
10802;DHT22;5453;50.852;7.102;2023-03-30T13:48:54;14.20;99.90
10802;DHT22;5453;50.852;7.102;2023-03-30T13:51:36;14.00;99.90
10802;DHT22;5453;50.852;7.102;2023-03-30T13:54:13;13.80;99.90
10802;DHT22;5453;50.852;7.102;2023-03-30T13:56:53;13.70;99.90
10802;DHT22;5453;50.852;7.102;2023-03-30T13:59:30;13.50;99.90
10802;DHT22;5453;50.852;7.102;2023-03-30T14:02:04;13.40;99.90
10802;DHT22;5453;50.852;7.102;2023-03-30T14:04:37;13.40;99.90
10802;DHT22;5453;50.852;7.102;2023-03-30T14:07:15;13.40;99.90
10802;DHT22;5453;50.852;7.102;2023-03-30T14:10:03;13.40;99.90
10802;DHT22;5453;50.852;7.102;2023-03-30T14:12:39;13.60;99.90
10802;DHT22;5453;50.852;7.102;2023-03-30T14:15:17;13.90;99.90
10802;DHT22;5453;50.852;7.102;2023-03-30T14:17:53;14.20;99.90
10802;DHT22;5453;50.852;7.102;2023-03-30T14:20:38;14.50;99.90
10802;DHT22;5453;50.852;7.102;2023-03-30T14:23:21;14.80;99.90
10802;DHT22;5453;50.852;7.102;2023-03-30T14:26:02;15.10;99.90
10802;DHT22;5453;50.852;7.102;2023-03-30T14:28:37;15.30;99.90
10802;DHT22;5453;50.852;7.102;2023-03-30T14:31:14;15.60;99.90
10802;DHT22;5453;50.852;7.102;2023-03-30T14:33:48;15.80;99.90
10802;DHT22;5453;50.852;7.102;2023-03-30T14:36:21;16.00;99.90
10802;DHT22;5453;50.852;7.102;2023-03-30T14:38:59;16.10;99.90
10802;DHT22;5453;50.852;7.102;2023-03-30T14:41:33;16.30;99.90
10802;DHT22;5453;50.852;7.102;2023-03-30T14:44:09;16.40;99.90
10802;DHT22;5453;50.852;7.102;2023-03-30T14:46:46;16.50;99.90
10802;DHT22;5453;50.852;7.102;2023-03-30T14:49:21;16.50;99.90
10802;DHT22;5453;50.852;7.102;2023-03-30T14:52:00;16.60;99.90
10802;DHT22;5453;50.852;7.102;2023-03-30T14:54:35;16.70;99.90
10802;DHT22;5453;50.852;7.102;2023-03-30T14:57:09;16.70;99.90
10802;DHT22;5453;50.852;7.102;2023-03-30T14:59:47;16.60;99.90
10802;DHT22;5453;50.852;7.102;2023-03-30T15:02:24;16.60;99.90
10802;DHT22;5453;50.852;7.102;2023-03-30T15:04:58;16.50;99.90
10802;DHT22;5453;50.852;7.102;2023-03-30T15:07:31;16.50;99.90
10802;DHT22;5453;50.852;7.102;2023-03-30T15:10:16;16.50;99.90
10802;DHT22;5453;50.852;7.102;2023-03-30T15:12:51;16.60;99.90
10802;DHT22;5453;50.852;7.102;2023-03-30T15:15:29;16.70;99.90
10802;DHT22;5453;50.852;7.102;2023-03-30T15:18:04;16.80;99.90
10802;DHT22;5453;50.852;7.102;2023-03-30T15:20:37;16.80;99.90
10802;DHT22;5453;50.852;7.102;2023-03-30T15:23:11;16.80;99.90
10802;DHT22;5453;50.852;7.102;2023-03-30T15:25:45;16.90;99.90
10802;DHT22;5453;50.852;7.102;2023-03-30T15:28:18;16.90;99.90
10802;DHT22;5453;50.852;7.102;2023-03-30T15:30:52;16.90;99.90
10802;DHT22;5453;50.852;7.102;2023-03-30T15:33:30;16.80;99.90
10802;DHT22;5453;50.852;7.102;2023-03-30T15:36:10;16.90;99.90
10802;DHT22;5453;50.852;7.102;2023-03-30T15:38:46;16.90;99.90
10802;DHT22;5453;50.852;7.102;2023-03-30T15:41:23;16.90;99.90
10802;DHT22;5453;50.852;7.102;2023-03-30T15:44:16;16.80;99.90
10802;DHT22;5453;50.852;7.102;2023-03-30T15:46:53;16.90;99.80
10802;DHT22;5453;50.852;7.102;2023-03-30T15:49:32;16.80;99.20
10802;DHT22;5453;50.852;7.102;2023-03-30T15:52:10;16.80;99.20
10802;DHT22;5453;50.852;7.102;2023-03-30T15:54:47;16.80;99.00
10802;DHT22;5453;50.852;7.102;2023-03-30T15:57:27;16.80;99.00
10802;DHT22;5453;50.852;7.102;2023-03-30T16:00:02;16.80;98.80
10802;DHT22;5453;50.852;7.102;2023-03-30T16:02:39;16.80;98.50
10802;DHT22;5453;50.852;7.102;2023-03-30T16:05:16;16.70;98.80
10802;DHT22;5453;50.852;7.102;2023-03-30T16:07:49;16.70;98.80
10802;DHT22;5453;50.852;7.102;2023-03-30T16:10:24;16.60;98.90
10802;DHT22;5453;50.852;7.102;2023-03-30T16:12:59;16.60;98.90
10802;DHT22;5453;50.852;7.102;2023-03-30T16:15:32;16.60;98.90
10802;DHT22;5453;50.852;7.102;2023-03-30T16:18:04;16.60;99.00
10802;DHT22;5453;50.852;7.102;2023-03-30T16:20:36;16.60;99.20
10802;DHT22;5453;50.852;7.102;2023-03-30T16:23:08;16.50;99.00
10802;DHT22;5453;50.852;7.102;2023-03-30T16:25:41;16.60;98.70
10802;DHT22;5453;50.852;7.102;2023-03-30T16:28:16;16.50;98.60
10802;DHT22;5453;50.852;7.102;2023-03-30T16:30:50;16.50;98.60
10802;DHT22;5453;50.852;7.102;2023-03-30T16:33:23;16.40;98.80
10802;DHT22;5453;50.852;7.102;2023-03-30T16:35:55;16.30;98.80
10802;DHT22;5453;50.852;7.102;2023-03-30T16:38:27;16.30;99.00
10802;DHT22;5453;50.852;7.102;2023-03-30T16:41:00;16.20;98.90
10802;DHT22;5453;50.852;7.102;2023-03-30T16:43:33;16.20;98.70
10802;DHT22;5453;50.852;7.102;2023-03-30T16:46:05;16.10;98.70
10802;DHT22;5453;50.852;7.102;2023-03-30T16:48:37;16.00;98.90
10802;DHT22;5453;50.852;7.102;2023-03-30T16:51:12;16.00;99.30
10802;DHT22;5453;50.852;7.102;2023-03-30T16:53:45;15.90;99.50
10802;DHT22;5453;50.852;7.102;2023-03-30T16:56:18;15.80;99.70
10802;DHT22;5453;50.852;7.102;2023-03-30T16:58:52;15.80;99.90
10802;DHT22;5453;50.852;7.102;2023-03-30T17:01:26;15.80;99.90
10802;DHT22;5453;50.852;7.102;2023-03-30T17:03:59;15.80;99.90
10802;DHT22;5453;50.852;7.102;2023-03-30T17:06:32;15.70;99.90
10802;DHT22;5453;50.852;7.102;2023-03-30T17:09:05;15.70;99.90
10802;DHT22;5453;50.852;7.102;2023-03-30T17:11:39;15.60;99.90
10802;DHT22;5453;50.852;7.102;2023-03-30T17:14:13;15.60;99.90
10802;DHT22;5453;50.852;7.102;2023-03-30T17:16:46;15.50;99.90
10802;DHT22;5453;50.852;7.102;2023-03-30T17:19:18;15.50;99.90
10802;DHT22;5453;50.852;7.102;2023-03-30T17:21:50;15.40;99.90
10802;DHT22;5453;50.852;7.102;2023-03-30T17:24:22;15.40;99.90